• Join FlightAware (Why Join?)
  • Login
  • US Flag 
Rudolph Flight #1: Arrived! 
05:55AM EST


 

Airport Tracker/Info


-or-


 

Live Flight TrackerFlight Track Log ✈ EJA583 ✈ 20-Jul-2013 ✈ CYQB - KBOS

Flight Track Log - Related Links

Times and Time Zones

All times are in EDT time to prevent confusion due to time zone crossing. See the EJA583 flight status page for this flight to view local times or setup timezone preferences in your user account.

Time Position Orientation Groundspeed Altitude Reporting Facility
EDT Latitude Longitude Course Direction KTS MPH feet Rate Location/Type
10:10AM 46.7500 -71.4167 176° South 200 230 3,000  Level Montreal Center
10:11AM 46.6833 -71.4333 190° South 250 288 7,300 4,560 Climbing Montreal Center
10:12AM 46.6167 -71.4500 190° South 220 253 12,200 2,820 Climbing Montreal Center
10:13AM 46.5500 -71.4333 170° South 290 334 13,000 360 Climbing Montreal Center
10:14AM 46.2716 -71.3447 176° South  Level Estimated
10:14AM 46.4500 -71.4333 180° South 340 391 13,000  Level Montreal Center
10:15AM 46.1850 -71.3367 176° South  Level Estimated
10:15AM 46.3667 -71.4167 172° South 310 357 16,800  Level Montreal Center
10:16AM 46.2833 -71.4333 188° South 270 311 20,500 3,000 Climbing Montreal Center
10:17AM 46.2167 -71.4167 170° South 270 311 22,800 1,980 Climbing Montreal Center
10:18AM 46.1500 -71.4000 170° South 290 334 24,500 1,500 Climbing Montreal Center
10:19AM 46.0500 -71.3500 161° South 330 380 25,800 720 Climbing Montreal Center
10:20AM 45.9667 -71.3333 172° South 370 426 26,000 60 Climbing Montreal Center
10:21AM 45.8500 -71.3000 169° South 390 449 26,000  Level Montreal Center
10:22AM 45.7333 -71.2667 169° South 400 460 26,000  Level Montreal Center
10:23AM 45.6167 -71.2167 163° South 400 460 26,000  Level Montreal Center
10:24AM 45.5167 -71.2000 173° South 400 460 26,000  Level Montreal Center
10:25AM 45.4000 -71.1667 169° South 400 460 26,000  Level Montreal Center
10:26AM 45.3000 -71.1333 167° South 400 460 26,000  Level Montreal Center
10:26AM 45.2497 -71.1400 185° South 398 458 26,000  Level Boston Center
10:27AM 45.1453 -71.1069 167° South 391 450 26,000  Level Boston Center
10:28AM 45.0450 -71.0800 169° South 378 435 26,000  Level Boston Center
10:29AM 44.9508 -71.0500 167° South 367 422 26,000  Level Boston Center
10:30AM 44.8547 -71.0228 169° South 355 409 26,000  Level Boston Center
10:31AM 44.7561 -70.9756 161° South 360 414 26,000  Level Boston Center
10:32AM 44.6556 -70.9314 163° South 366 421 26,000  Level Boston Center
10:33AM 44.5594 -70.8961 165° South 366 421 26,000  Level Boston Center
10:34AM 44.4589 -70.8667 168° South 366 421 26,000 -300 Level Boston Center
10:35AM 44.3586 -70.8431 170° South 361 415 25,500 -1,020 Descending Boston Center
10:36AM 44.2542 -70.8169 170° South 375 432 24,000 -780 Descending Boston Center
10:37AM 44.1453 -70.7911 170° South 382 440 24,000  Level Boston Center
10:38AM 44.0408 -70.7650 170° South 387 445 24,000  Level Boston Center
10:39AM 43.9361 -70.7392 170° South 387 445 24,000  Level Boston Center
10:40AM 43.8317 -70.7161 171° South 387 445 24,000 -60 Level Boston Center
10:42AM 43.7311 -70.6903 169° South 387 445 23,900 -600 Descending Boston Center
10:43AM 43.6119 -70.6564 168° South 377 434 22,700 -1,080 Descending Boston Center
10:44AM 43.5114 -70.6336 171° South 372 428 21,800 -960 Descending Boston Center
10:45AM 43.4089 -70.6025 168° South 372 428 20,800 -900 Descending Boston Center
10:46AM 43.3103 -70.5569 161° South 372 428 20,000 -420 Descending Boston Center
10:47AM 43.2219 -70.5169 162° South 360 414 20,000  Level Boston Center
10:48AM 43.1339 -70.4769 162° South 346 398 20,000 -120 Level Boston Center
10:49AM 43.0433 -70.4344 161° South 346 398 19,800 -1,260 Descending Boston Center
10:50AM 42.9342 -70.3842 161° South 363 418 17,500 -1,860 Descending Boston Center
10:51AM 42.8606 -70.3497 161° South 363 418 16,100 -1,620 Descending Boston Center
10:52AM 42.7639 -70.3050 161° South 351 404 14,300 -1,980 Descending Boston Center
10:53AM 42.6956 -70.3356 198° South 299 344 12,200 -1,500 Descending Boston Center
10:54AM 42.6747 -70.4406 255° West 230 265 11,000 -1,140 Descending Boston Center
10:55AM 42.6517 -70.5656 256° West 259 298 9,800 -1,500 Descending Boston Center
10:56AM 42.6344 -70.6592 256° West 259 298 8,000 -2,040 Descending Boston Center
10:57AM 42.6150 -70.7444 253° West 259 298 5,800 -1,980 Descending Boston Center
10:58AM 42.6017 -70.8267 258° West 239 275 4,100 -960 Descending Boston Center
10:59AM 42.5833 -70.8833 246° West 159 183 4,000 -600 Descending KA90
11:00AM 42.5667 -70.9167 236° Southwest 174 200 3,000 -600 Descending KA90
11:01AM 42.5167 -70.9333 194° South 174 200 2,800 -540 Descending KA90
11:02AM 42.4667 -70.9500 194° South 164 189 2,000 -840 Descending KA90
11:03AM 42.4333 -70.9667 200° South 155 178 1,300 -720 Descending KA90
11:04AM 42.4000 -70.9833 200° South 124 143 600 -660 Descending KA90
11:07AM 42.3630 -71.0064 North  Level Estimated